Time;durP1;ratioP1;P1;durP2;ratioP2;P2;SDS_P1;SDS_P2;PMS_P1;PMS_P2;Temp;Humidity;BMP_temperature;BMP_pressure;BME280_temperature;BME280_humidity;BME280_pressure;Samples;Min_cycle;Max_cycle;Signal;HPM_P1;HPM_P2
2023/05/05 00:00:59;;;;;;;1.10;0.97;;;17.40;89.10;;;;;;4866666;29;20543;-76
2023/05/05 00:03:28;;;;;;;0.83;0.50;;;17.40;89.10;;;;;;4857582;29;20316;-75
2023/05/05 00:05:56;;;;;;;0.40;0.40;;;17.40;89.10;;;;;;4868928;29;20328;-75
2023/05/05 00:08:27;;;;;;;1.83;1.17;;;17.40;89.10;;;;;;4872616;29;20224;-75
2023/05/05 00:10:56;;;;;;;1.37;1.07;;;17.40;89.30;;;;;;4873064;29;20197;-75
2023/05/05 00:13:24;;;;;;;0.40;0.40;;;17.30;89.20;;;;;;4869314;29;20213;-74
2023/05/05 00:15:54;;;;;;;0.87;0.57;;;17.40;89.30;;;;;;4875238;29;20209;-74
2023/05/05 00:18:22;;;;;;;0.40;0.40;;;17.30;89.20;;;;;;4871999;29;20201;-74
2023/05/05 00:20:51;;;;;;;1.50;1.07;;;17.40;89.20;;;;;;4866492;29;20205;-75
2023/05/05 00:23:19;;;;;;;3.10;1.00;;;17.30;89.20;;;;;;4871415;29;20233;-74
2023/05/05 00:25:49;;;;;;;2.93;1.03;;;17.30;89.20;;;;;;4871256;29;20201;-75
2023/05/05 00:28:18;;;;;;;2.77;0.90;;;17.30;89.20;;;;;;4873825;29;20264;-76
2023/05/05 00:30:46;;;;;;;1.40;0.93;;;17.30;89.10;;;;;;4865981;29;20625;-75
2023/05/05 00:33:14;;;;;;;1.43;1.10;;;17.30;89.10;;;;;;4872056;29;20193;-75
2023/05/05 00:35:43;;;;;;;0.43;0.43;;;17.30;89.10;;;;;;4873126;29;20733;-75
2023/05/05 00:38:11;;;;;;;1.93;1.00;;;17.30;89.20;;;;;;4870740;29;20742;-75
2023/05/05 00:40:40;;;;;;;0.87;0.87;;;17.30;89.50;;;;;;4870372;29;20225;-75
2023/05/05 00:43:09;;;;;;;2.33;0.83;;;17.30;89.40;;;;;;4876659;29;20197;-74
2023/05/05 00:45:41;;;;;;;0.67;0.67;;;17.30;89.50;;;;;;4872967;29;20205;-74
2023/05/05 00:48:10;;;;;;;1.80;1.07;;;17.30;89.40;;;;;;4872865;29;20212;-75
2023/05/05 00:50:38;;;;;;;2.43;1.00;;;17.30;89.50;;;;;;4872951;29;20217;-75
2023/05/05 00:53:07;;;;;;;0.70;0.70;;;17.20;89.40;;;;;;4873308;29;20201;-74
2023/05/05 00:55:35;;;;;;;1.40;1.30;;;17.30;89.50;;;;;;4873807;29;20220;-75
2023/05/05 00:58:04;;;;;;;3.50;0.77;;;17.30;89.50;;;;;;4876788;29;20197;-74
2023/05/05 01:00:34;;;;;;;4.83;1.87;;;17.20;89.50;;;;;;4870905;29;20202;-75
2023/05/05 01:03:03;;;;;;;2.10;1.90;;;17.20;89.80;;;;;;4876358;29;20238;-75
2023/05/05 01:05:42;;;;;;;1.80;1.03;;;17.20;90.00;;;;;;4870978;29;20231;-75
2023/05/05 01:08:23;;;;;;;0.97;0.97;;;17.20;90.00;;;;;;4872022;29;20239;-74
2023/05/05 01:10:59;;;;;;;1.97;1.53;;;17.20;90.00;;;;;;4873096;29;20201;-74
2023/05/05 01:13:37;;;;;;;1.07;0.83;;;17.10;90.00;;;;;;4870657;29;20633;-74
2023/05/05 01:16:12;;;;;;;1.33;1.20;;;17.20;90.00;;;;;;4870124;29;20201;-74
2023/05/05 01:18:50;;;;;;;0.83;0.83;;;17.10;89.80;;;;;;4874464;29;20200;-74
2023/05/05 01:21:25;;;;;;;1.17;1.07;;;17.10;89.90;;;;;;4871993;29;20638;-76
2023/05/05 01:24:27;;;;;;;0.40;0.40;;;17.20;90.00;;;;;;4874341;29;20245;-75
2023/05/05 01:27:30;;;;;;;1.70;1.17;;;17.20;90.00;;;;;;4867418;29;20193;-74
2023/05/05 01:30:10;;;;;;;1.40;1.07;;;17.20;90.00;;;;;;4871276;29;20246;-75
2023/05/05 01:32:45;;;;;;;0.73;0.73;;;17.30;90.10;;;;;;4873554;29;20237;-76
2023/05/05 01:35:19;;;;;;;8.33;2.13;;;17.30;90.10;;;;;;4872765;29;20197;-75
2023/05/05 01:37:51;;;;;;;1.40;1.27;;;17.30;90.20;;;;;;4870630;29;20643;-74
2023/05/05 01:40:25;;;;;;;1.03;0.63;;;17.30;90.10;;;;;;4872160;29;20615;-75
2023/05/05 01:42:55;;;;;;;1.73;1.13;;;17.30;90.10;;;;;;4874350;29;20202;-75
2023/05/05 01:45:26;;;;;;;2.17;1.53;;;17.30;90.10;;;;;;4873004;29;20662;-75
2023/05/05 01:47:57;;;;;;;2.00;1.30;;;17.30;90.40;;;;;;4873277;29;20231;-74
2023/05/05 01:50:28;;;;;;;1.67;1.57;;;17.30;90.40;;;;;;4871020;29;20560;-75
2023/05/05 01:52:57;;;;;;;2.17;1.43;;;17.20;90.60;;;;;;4877219;29;20197;-74
2023/05/05 01:55:27;;;;;;;0.97;0.77;;;17.20;90.50;;;;;;4873815;29;20305;-74
2023/05/05 01:57:57;;;;;;;1.93;1.27;;;17.20;90.50;;;;;;4874999;29;20761;-75
2023/05/05 02:00:27;;;;;;;1.60;0.93;;;17.20;90.50;;;;;;4868742;29;20198;-75
2023/05/05 02:02:58;;;;;;;1.13;1.00;;;17.20;90.50;;;;;;4870220;29;20205;-74
2023/05/05 02:05:27;;;;;;;1.80;1.37;;;17.20;90.40;;;;;;4873125;29;20201;-74
2023/05/05 02:07:59;;;;;;;0.87;0.70;;;17.20;90.40;;;;;;4867043;29;20225;-74
2023/05/05 02:10:28;;;;;;;2.10;1.40;;;17.20;90.30;;;;;;4869225;29;20197;-75
2023/05/05 02:12:59;;;;;;;8.40;0.93;;;17.20;90.40;;;;;;4871844;29;20209;-74
2023/05/05 02:15:28;;;;;;;2.30;1.43;;;17.10;90.30;;;;;;4867247;29;20569;-74
2023/05/05 02:18:00;;;;;;;1.40;1.13;;;17.10;90.40;;;;;;4867390;29;22661;-74
2023/05/05 02:20:31;;;;;;;1.47;1.20;;;17.00;90.50;;;;;;4866761;29;20649;-74
2023/05/05 02:23:00;;;;;;;1.90;0.97;;;17.00;90.50;;;;;;4869253;29;20249;-74
2023/05/05 02:25:35;;;;;;;0.93;0.50;;;17.00;90.50;;;;;;4872248;29;20236;-74
2023/05/05 02:28:04;;;;;;;1.03;0.80;;;17.00;90.40;;;;;;4871642;29;20307;-74
2023/05/05 02:30:36;;;;;;;2.70;1.97;;;17.00;90.50;;;;;;4869174;29;20236;-75
2023/05/05 02:33:09;;;;;;;0.53;0.53;;;17.00;90.40;;;;;;4869509;29;20241;-76
2023/05/05 02:35:40;;;;;;;1.57;1.43;;;17.00;90.50;;;;;;4865429;29;20246;-74
2023/05/05 02:38:16;;;;;;;1.87;0.80;;;16.90;90.90;;;;;;4866546;29;20275;-75
2023/05/05 02:40:46;;;;;;;0.83;0.83;;;16.90;90.50;;;;;;4871196;29;20203;-75
2023/05/05 02:43:19;;;;;;;2.93;1.37;;;16.90;90.50;;;;;;4870706;29;20220;-75
2023/05/05 02:45:47;;;;;;;1.23;1.03;;;16.90;90.70;;;;;;4866536;29;20594;-75
2023/05/05 02:48:17;;;;;;;1.63;1.27;;;16.90;90.60;;;;;;4871331;29;20228;-75
2023/05/05 02:50:45;;;;;;;2.20;0.97;;;16.90;90.70;;;;;;4872035;29;20279;-74
2023/05/05 02:53:14;;;;;;;2.63;2.10;;;16.80;90.60;;;;;;4872317;29;20345;-76
2023/05/05 02:55:50;;;;;;;6.27;3.10;;;16.80;90.90;;;;;;4862753;29;20201;-75
2023/05/05 02:58:29;;;;;;;4.20;1.57;;;16.80;91.30;;;;;;4866465;29;20200;-75
2023/05/05 03:01:06;;;;;;;0.93;0.93;;;16.80;91.20;;;;;;4869836;29;20229;-74
2023/05/05 03:03:58;;;;;;;2.50;2.00;;;16.80;91.20;;;;;;4867176;29;20192;-74
2023/05/05 03:06:28;;;;;;;1.20;1.13;;;16.70;91.20;;;;;;4868392;29;20201;-75
2023/05/05 03:09:03;;;;;;;1.40;1.13;;;16.70;91.20;;;;;;4864761;29;20303;-75
2023/05/05 03:11:35;;;;;;;0.90;0.87;;;16.70;91.10;;;;;;4872280;29;20201;-74
2023/05/05 03:14:09;;;;;;;1.37;0.80;;;16.70;91.10;;;;;;4870820;29;20223;-74
2023/05/05 03:16:39;;;;;;;1.93;1.17;;;16.70;91.20;;;;;;4866876;29;20690;-74
2023/05/05 03:19:12;;;;;;;4.10;1.37;;;16.70;91.20;;;;;;4867665;29;20201;-74
2023/05/05 03:21:40;;;;;;;0.70;0.57;;;16.70;91.10;;;;;;4873525;29;20240;-74
2023/05/05 03:24:15;;;;;;;1.57;1.13;;;16.70;91.10;;;;;;4868162;29;20650;-75
2023/05/05 03:26:44;;;;;;;2.03;1.00;;;16.70;91.10;;;;;;4871654;29;20201;-74
2023/05/05 03:29:13;;;;;;;0.70;0.63;;;16.70;91.10;;;;;;4869439;29;20230;-74
2023/05/05 03:31:42;;;;;;;1.97;0.90;;;16.70;91.10;;;;;;4867161;29;20208;-75
2023/05/05 03:34:11;;;;;;;1.63;0.80;;;16.70;91.00;;;;;;4868321;29;20261;-74
2023/05/05 03:36:41;;;;;;;0.77;0.77;;;16.70;91.00;;;;;;4869942;29;20197;-75
2023/05/05 03:39:09;;;;;;;0.70;0.70;;;16.70;91.00;;;;;;4868958;29;20229;-74
2023/05/05 03:41:38;;;;;;;1.50;1.03;;;16.70;91.00;;;;;;4865641;29;20209;-74
2023/05/05 03:44:06;;;;;;;2.97;1.73;;;16.70;91.10;;;;;;4870124;29;20249;-74
2023/05/05 03:46:34;;;;;;;2.17;1.50;;;16.70;91.20;;;;;;4871689;29;20508;-74
2023/05/05 03:49:03;;;;;;;2.77;1.10;;;16.80;91.30;;;;;;4873140;29;20229;-74
2023/05/05 03:51:32;;;;;;;11.13;1.00;;;16.80;91.30;;;;;;4865610;29;20297;-74
2023/05/05 03:54:00;;;;;;;1.60;0.80;;;16.80;91.30;;;;;;4875237;29;20570;-74
2023/05/05 03:56:29;;;;;;;2.60;2.27;;;16.80;91.40;;;;;;4869592;29;20209;-74
2023/05/05 03:58:57;;;;;;;2.03;1.40;;;16.80;91.60;;;;;;4869573;29;20300;-74
2023/05/05 04:01:28;;;;;;;5.07;1.80;;;16.80;91.80;;;;;;4868883;29;20663;-73
2023/05/05 04:03:57;;;;;;;6.87;1.50;;;16.70;91.90;;;;;;4875146;29;20202;-74
2023/05/05 04:06:25;;;;;;;2.63;1.70;;;16.70;91.80;;;;;;4876676;29;21118;-74
2023/05/05 04:08:55;;;;;;;2.57;2.20;;;16.70;91.80;;;;;;4877320;29;20202;-74
2023/05/05 04:11:23;;;;;;;1.17;1.07;;;16.70;92.00;;;;;;4873881;29;20562;-74
2023/05/05 04:13:51;;;;;;;1.80;1.60;;;16.70;91.90;;;;;;4865802;29;20292;-76
2023/05/05 04:16:20;;;;;;;2.43;1.40;;;16.70;91.90;;;;;;4870632;29;20197;-76
2023/05/05 04:18:48;;;;;;;2.73;1.90;;;16.70;91.80;;;;;;4871054;29;20632;-76
2023/05/05 04:21:16;;;;;;;4.80;2.70;;;16.70;91.70;;;;;;4868217;29;20339;-75
2023/05/05 04:23:44;;;;;;;2.93;2.03;;;16.80;91.80;;;;;;4877088;29;20198;-73
2023/05/05 04:26:14;;;;;;;7.87;2.60;;;16.80;91.70;;;;;;4870923;29;20283;-75
2023/05/05 04:28:42;;;;;;;11.13;2.00;;;16.80;91.70;;;;;;4879907;29;20242;-74
2023/05/05 04:31:11;;;;;;;4.70;1.40;;;16.80;91.70;;;;;;4875974;29;20228;-73
2023/05/05 04:33:39;;;;;;;4.27;1.97;;;16.80;91.60;;;;;;4875037;29;20825;-74
2023/05/05 04:36:08;;;;;;;6.47;3.00;;;16.80;91.60;;;;;;4870694;29;20213;-74
2023/05/05 04:38:36;;;;;;;5.07;2.40;;;16.80;91.60;;;;;;4870856;29;20324;-74
2023/05/05 04:41:06;;;;;;;2.17;1.77;;;16.80;91.70;;;;;;4871883;29;20213;-74
2023/05/05 04:43:35;;;;;;;4.63;2.30;;;16.80;91.90;;;;;;4870490;29;20275;-73
2023/05/05 04:46:04;;;;;;;5.17;3.53;;;16.80;91.90;;;;;;4873623;29;20197;-73
2023/05/05 04:48:33;;;;;;;2.50;1.63;;;16.80;91.90;;;;;;4874009;29;20662;-73
2023/05/05 04:51:04;;;;;;;6.27;2.27;;;16.80;91.80;;;;;;4874372;29;20727;-74
2023/05/05 04:53:33;;;;;;;4.97;2.30;;;16.80;91.70;;;;;;4875662;29;20200;-74
2023/05/05 04:56:01;;;;;;;3.73;2.53;;;16.80;91.90;;;;;;4872602;29;20285;-74
2023/05/05 04:58:29;;;;;;;8.07;2.90;;;16.80;92.10;;;;;;4868364;29;20198;-73
2023/05/05 05:00:59;;;;;;;3.17;1.83;;;16.80;92.10;;;;;;4872802;29;20250;-74
2023/05/05 05:03:27;;;;;;;4.60;2.40;;;16.80;92.00;;;;;;4869650;29;20288;-73
2023/05/05 05:05:56;;;;;;;5.83;2.70;;;16.80;92.00;;;;;;4873346;29;20726;-74
2023/05/05 05:08:24;;;;;;;12.50;2.63;;;16.80;91.90;;;;;;4877634;29;20205;-74
2023/05/05 05:10:53;;;;;;;2.83;1.80;;;16.80;91.90;;;;;;4876146;29;20232;-74
2023/05/05 05:13:21;;;;;;;4.97;3.07;;;16.90;91.90;;;;;;4876360;29;20197;-74
2023/05/05 05:15:50;;;;;;;3.10;1.90;;;16.80;92.00;;;;;;4876315;29;20288;-74
2023/05/05 05:18:19;;;;;;;6.78;3.08;;;16.80;91.90;;;;;;4867912;29;20483;-74
2023/05/05 05:20:47;;;;;;;4.20;2.53;;;16.90;92.00;;;;;;4873656;29;20228;-73
2023/05/05 05:23:16;;;;;;;6.33;3.10;;;16.90;92.00;;;;;;4875957;29;20201;-74
2023/05/05 05:25:44;;;;;;;10.90;3.10;;;16.90;92.10;;;;;;4866948;29;20209;-74
2023/05/05 05:28:13;;;;;;;4.60;2.23;;;16.90;92.00;;;;;;4871707;29;20226;-75
2023/05/05 05:30:43;;;;;;;6.33;2.60;;;17.00;91.90;;;;;;4876023;29;20268;-73
2023/05/05 05:33:11;;;;;;;6.90;2.47;;;17.00;91.80;;;;;;4869516;29;20261;-74
2023/05/05 05:35:41;;;;;;;4.03;2.30;;;17.00;91.80;;;;;;4872536;29;20205;-73
2023/05/05 05:38:09;;;;;;;3.00;2.13;;;17.00;91.70;;;;;;4871535;29;20237;-75
2023/05/05 05:40:38;;;;;;;3.53;1.90;;;17.00;91.60;;;;;;4874363;29;20208;-73
2023/05/05 05:43:06;;;;;;;4.90;2.73;;;17.00;91.60;;;;;;4871531;29;20270;-73
2023/05/05 05:45:34;;;;;;;4.43;2.63;;;17.00;91.60;;;;;;4870510;29;20202;-76
2023/05/05 05:48:03;;;;;;;5.63;2.70;;;17.00;91.50;;;;;;4874081;29;20283;-75
2023/05/05 05:50:31;;;;;;;3.20;2.20;;;17.10;91.50;;;;;;4872510;29;20229;-75
2023/05/05 05:53:01;;;;;;;12.77;3.23;;;17.10;91.40;;;;;;4871014;29;20269;-74
2023/05/05 05:55:29;;;;;;;3.27;1.83;;;17.10;91.30;;;;;;4871462;29;20253;-74
2023/05/05 05:57:57;;;;;;;4.80;2.23;;;17.10;91.30;;;;;;4867718;29;20264;-74
2023/05/05 06:00:26;;;;;;;4.30;2.50;;;17.20;91.30;;;;;;4876251;29;20249;-74
2023/05/05 06:02:54;;;;;;;4.87;2.47;;;17.20;91.20;;;;;;4874031;29;20230;-74
2023/05/05 06:05:22;;;;;;;4.97;3.00;;;17.20;91.10;;;;;;4869409;29;20265;-77
2023/05/05 06:07:51;;;;;;;4.90;2.60;;;17.20;91.10;;;;;;4863221;29;20654;-74
2023/05/05 06:10:21;;;;;;;8.43;3.23;;;17.20;91.10;;;;;;4869506;29;20347;-75
2023/05/05 06:12:55;;;;;;;6.90;2.70;;;17.20;91.00;;;;;;4864280;29;20291;-74
2023/05/05 06:15:24;;;;;;;4.57;2.50;;;17.30;91.00;;;;;;4869318;29;20197;-74
2023/05/05 06:17:53;;;;;;;8.23;3.07;;;17.40;90.90;;;;;;4875235;29;20568;-75
2023/05/05 06:20:21;;;;;;;5.10;2.27;;;17.40;90.90;;;;;;4873784;29;20193;-75
2023/05/05 06:22:49;;;;;;;6.77;2.50;;;17.40;90.80;;;;;;4872405;29;20201;-75
2023/05/05 06:25:18;;;;;;;4.23;2.47;;;17.50;91.10;;;;;;4868902;29;20212;-76
2023/05/05 06:27:47;;;;;;;5.07;2.67;;;17.50;90.70;;;;;;4874133;29;20201;-75
2023/05/05 06:30:16;;;;;;;8.50;2.60;;;17.60;90.70;;;;;;4860979;29;20225;-75
2023/05/05 06:32:44;;;;;;;4.90;2.23;;;17.70;90.70;;;;;;4868381;29;20209;-76
2023/05/05 06:35:13;;;;;;;6.10;3.47;;;17.70;90.70;;;;;;4865873;29;20198;-75
2023/05/05 06:37:42;;;;;;;6.90;3.27;;;17.80;90.50;;;;;;4870184;29;20744;-76
2023/05/05 06:40:12;;;;;;;4.37;1.90;;;17.80;90.40;;;;;;4861346;29;20648;-74
2023/05/05 06:42:40;;;;;;;5.50;2.73;;;17.90;90.30;;;;;;4873112;29;20201;-75
2023/05/05 06:45:11;;;;;;;4.43;2.10;;;17.90;90.20;;;;;;4869387;29;20252;-76
2023/05/05 06:47:39;;;;;;;11.07;2.30;;;17.90;90.00;;;;;;4861253;29;20201;-76
2023/05/05 06:50:09;;;;;;;6.43;2.43;;;18.00;89.80;;;;;;4869209;29;20201;-76
2023/05/05 06:52:37;;;;;;;6.87;2.70;;;18.00;89.00;;;;;;4871779;29;20311;-76
2023/05/05 06:55:06;;;;;;;7.80;2.47;;;18.00;89.10;;;;;;4871437;29;20210;-75
2023/05/05 06:57:35;;;;;;;2.40;1.50;;;18.10;89.30;;;;;;4863255;29;21678;-77
2023/05/05 07:00:04;;;;;;;5.23;2.10;;;18.20;89.30;;;;;;4871316;29;20216;-75
2023/05/05 07:02:34;;;;;;;5.87;2.67;;;18.20;89.30;;;;;;4873172;29;20197;-75
2023/05/05 07:05:03;;;;;;;5.70;2.10;;;18.30;89.00;;;;;;4868762;29;20197;-75
2023/05/05 07:07:31;;;;;;;4.70;2.33;;;18.30;88.40;;;;;;4870525;29;20244;-76
2023/05/05 07:10:00;;;;;;;2.90;1.43;;;18.40;88.40;;;;;;4875583;29;20284;-76
2023/05/05 07:12:29;;;;;;;4.30;1.90;;;18.50;88.20;;;;;;4872252;29;20312;-75
2023/05/05 07:14:58;;;;;;;2.77;1.63;;;18.50;88.30;;;;;;4869843;29;20928;-75
2023/05/05 07:17:26;;;;;;;4.43;1.93;;;18.60;88.30;;;;;;4871444;29;20610;-75
2023/05/05 07:19:56;;;;;;;3.73;2.13;;;18.70;88.20;;;;;;4872195;29;20296;-76
2023/05/05 07:22:24;;;;;;;3.07;1.53;;;18.80;87.60;;;;;;4869986;29;21832;-76
2023/05/05 07:24:52;;;;;;;6.43;2.47;;;18.90;87.60;;;;;;4863686;29;20280;-75
2023/05/05 07:27:21;;;;;;;4.63;1.60;;;19.00;87.20;;;;;;4870532;29;20220;-75
2023/05/05 07:29:50;;;;;;;2.07;1.57;;;19.00;87.10;;;;;;4877956;29;20261;-76
2023/05/05 07:32:18;;;;;;;4.33;1.73;;;19.10;86.90;;;;;;4875440;29;20236;-75
2023/05/05 07:34:46;;;;;;;2.90;1.63;;;19.20;86.90;;;;;;4875264;29;20261;-76
2023/05/05 07:37:16;;;;;;;3.37;1.53;;;19.30;86.50;;;;;;4871006;29;20718;-75
2023/05/05 07:39:46;;;;;;;3.77;2.17;;;19.30;86.30;;;;;;4873733;29;20692;-76
2023/05/05 07:42:14;;;;;;;5.50;1.70;;;19.30;86.20;;;;;;4871844;29;20826;-75
2023/05/05 07:44:42;;;;;;;3.47;1.67;;;19.40;86.20;;;;;;4877131;29;20292;-75
2023/05/05 07:47:11;;;;;;;2.00;1.40;;;19.40;86.30;;;;;;4875974;29;20189;-75
2023/05/05 07:49:39;;;;;;;4.53;1.93;;;19.50;86.40;;;;;;4876625;29;20646;-77
2023/05/05 07:52:07;;;;;;;3.17;1.80;;;19.50;85.30;;;;;;4869567;29;20690;-76
2023/05/05 07:54:37;;;;;;;2.07;1.00;;;19.50;84.60;;;;;;4878625;29;20209;-75
2023/05/05 07:57:06;;;;;;;2.73;1.70;;;19.60;84.90;;;;;;4872294;29;20201;-77
2023/05/05 07:59:34;;;;;;;4.97;2.22;;;19.60;84.40;;;;;;4877269;29;20205;-75
2023/05/05 08:02:03;;;;;;;3.00;1.73;;;19.70;84.10;;;;;;4873637;29;20693;-75
2023/05/05 08:04:31;;;;;;;1.93;1.10;;;19.70;83.70;;;;;;4876456;29;20237;-75
2023/05/05 08:06:59;;;;;;;3.00;1.70;;;19.80;83.80;;;;;;4873880;29;20193;-74
2023/05/05 08:09:28;;;;;;;2.47;1.10;;;19.80;83.60;;;;;;4876369;29;20197;-75
2023/05/05 08:11:58;;;;;;;6.50;2.00;;;19.90;83.80;;;;;;4873232;29;20235;-76
2023/05/05 08:14:26;;;;;;;4.93;1.67;;;20.00;83.70;;;;;;4871987;29;20205;-75
2023/05/05 08:16:54;;;;;;;3.53;1.70;;;20.00;82.70;;;;;;4863472;29;20653;-76
2023/05/05 08:19:23;;;;;;;3.07;1.53;;;20.10;82.80;;;;;;4874944;29;20201;-76
2023/05/05 08:21:56;;;;;;;2.97;1.47;;;20.10;82.00;;;;;;4869571;29;20257;-75
2023/05/05 08:24:28;;;;;;;3.08;1.65;;;20.20;81.80;;;;;;4869015;29;20266;-75
2023/05/05 08:26:58;;;;;;;5.15;1.65;;;20.20;81.60;;;;;;4869197;29;20328;-75
2023/05/05 08:29:26;;;;;;;4.70;2.30;;;20.30;81.70;;;;;;4871035;29;20205;-76
2023/05/05 08:31:55;;;;;;;2.60;1.40;;;20.30;79.30;;;;;;4870690;29;20229;-76
2023/05/05 08:34:23;;;;;;;3.10;1.50;;;20.40;79.20;;;;;;4862996;29;20201;-75
2023/05/05 08:36:51;;;;;;;2.40;1.17;;;20.50;78.70;;;;;;4872277;29;20722;-75
2023/05/05 08:39:20;;;;;;;3.42;2.03;;;20.60;79.40;;;;;;4872769;29;20773;-75
2023/05/05 08:41:48;;;;;;;1.75;1.27;;;20.70;79.70;;;;;;4867557;29;20292;-77
2023/05/05 08:44:18;;;;;;;2.78;1.55;;;20.70;79.30;;;;;;4870247;29;20659;-75
2023/05/05 08:46:48;;;;;;;4.30;1.17;;;20.90;79.40;;;;;;4869558;29;20296;-76
2023/05/05 08:49:18;;;;;;;2.08;1.15;;;20.90;77.80;;;;;;4875708;29;20220;-75
2023/05/05 08:51:47;;;;;;;3.42;1.45;;;20.90;73.90;;;;;;4871894;29;20324;-75
2023/05/05 08:54:19;;;;;;;1.50;0.82;;;20.90;74.30;;;;;;4871838;29;20643;-77
2023/05/05 08:56:51;;;;;;;3.45;0.80;;;21.00;74.30;;;;;;4868392;29;20233;-75
2023/05/05 08:59:23;;;;;;;1.80;1.00;;;21.10;74.80;;;;;;4871148;29;20193;-75
2023/05/05 09:01:56;;;;;;;1.85;1.10;;;21.30;74.70;;;;;;4868659;29;20462;-75
2023/05/05 09:04:24;;;;;;;1.55;1.00;;;21.40;73.60;;;;;;4876528;29;20189;-75
2023/05/05 09:06:52;;;;;;;2.50;1.10;;;21.40;71.30;;;;;;4870887;29;20202;-75
2023/05/05 09:09:21;;;;;;;2.25;1.23;;;21.50;72.40;;;;;;4872340;29;20208;-74
2023/05/05 09:11:52;;;;;;;1.20;0.82;;;21.60;72.10;;;;;;4867786;29;20718;-76
2023/05/05 09:14:22;;;;;;;1.70;1.23;;;21.60;72.50;;;;;;4874178;29;20201;-75
2023/05/05 09:16:50;;;;;;;1.63;1.05;;;21.70;72.50;;;;;;4864499;29;20216;-77
2023/05/05 09:19:19;;;;;;;2.38;1.05;;;21.70;72.80;;;;;;4869931;29;20217;-74
2023/05/05 09:21:48;;;;;;;1.35;0.98;;;21.80;72.20;;;;;;4867664;29;20204;-76
2023/05/05 09:24:17;;;;;;;2.47;1.10;;;21.90;71.30;;;;;;4864219;29;20194;-77
2023/05/05 09:26:47;;;;;;;1.80;1.08;;;21.90;71.00;;;;;;4874297;29;20200;-76
2023/05/05 09:29:19;;;;;;;2.38;1.05;;;22.00;69.90;;;;;;4872740;29;20249;-75
2023/05/05 09:32:04;;;;;;;2.15;1.05;;;22.10;70.00;;;;;;4866877;29;20201;-75
2023/05/05 09:34:34;;;;;;;2.17;1.10;;;22.20;69.00;;;;;;4871449;29;20205;-76
2023/05/05 09:37:04;;;;;;;3.45;1.17;;;22.30;68.40;;;;;;4871699;29;20591;-75
2023/05/05 09:39:33;;;;;;;1.88;1.05;;;22.30;66.80;;;;;;4870565;29;20234;-76
2023/05/05 09:42:02;;;;;;;6.32;1.40;;;22.40;67.90;;;;;;4865679;29;20205;-75
2023/05/05 09:44:35;;;;;;;3.65;1.40;;;22.40;68.70;;;;;;4869914;29;20205;-76
2023/05/05 09:47:05;;;;;;;3.47;1.00;;;22.50;68.90;;;;;;4872379;29;20241;-75
2023/05/05 09:49:59;;;;;;;4.55;1.17;;;22.50;68.60;;;;;;4864381;29;20205;-75
2023/05/05 09:52:27;;;;;;;5.18;1.20;;;22.60;68.80;;;;;;4873218;29;20594;-75
2023/05/05 09:54:57;;;;;;;5.85;1.48;;;22.60;68.80;;;;;;4838275;29;20212;-75
2023/05/05 09:57:29;;;;;;;1.58;1.02;;;22.60;68.60;;;;;;4865745;29;20236;-75
2023/05/05 09:59:59;;;;;;;1.05;0.95;;;22.50;68.60;;;;;;4862091;29;20312;-76
2023/05/05 10:02:33;;;;;;;7.47;1.83;;;22.40;66.10;;;;;;4870579;29;20292;-75
2023/05/05 10:05:06;;;;;;;2.17;1.13;;;22.40;65.70;;;;;;4864973;29;20287;-75
2023/05/05 10:07:36;;;;;;;1.63;0.80;;;22.40;66.70;;;;;;4871706;29;20197;-75
2023/05/05 10:10:06;;;;;;;1.77;1.02;;;22.40;67.50;;;;;;4871450;29;20237;-76
2023/05/05 10:12:36;;;;;;;2.50;1.08;;;22.40;67.60;;;;;;4873303;29;20224;-76
2023/05/05 10:15:06;;;;;;;1.90;1.00;;;22.30;67.60;;;;;;4869656;29;20284;-77
2023/05/05 10:17:44;;;;;;;2.85;1.08;;;22.30;67.50;;;;;;4869978;29;20273;-76
2023/05/05 10:20:35;;;;;;;2.45;1.40;;;22.30;67.50;;;;;;4873781;29;20654;-75
2023/05/05 10:23:08;;;;;;;4.03;1.75;;;22.10;68.70;;;;;;4880475;29;20205;-75
2023/05/05 10:25:42;;;;;;;2.97;1.58;;;22.10;69.10;;;;;;4874628;29;20698;-75
2023/05/05 10:28:16;;;;;;;3.88;1.40;;;22.10;69.60;;;;;;4871341;29;20196;-75
2023/05/05 10:30:49;;;;;;;4.65;1.98;;;22.00;70.00;;;;;;4870666;29;20729;-75
2023/05/05 10:33:23;;;;;;;4.97;2.03;;;22.00;70.50;;;;;;4871095;29;20244;-77
2023/05/05 10:36:00;;;;;;;3.08;1.95;;;22.00;71.20;;;;;;4865814;29;20283;-76
2023/05/05 10:38:30;;;;;;;3.20;1.50;;;22.00;71.30;;;;;;4872072;29;20237;-76
2023/05/05 10:41:00;;;;;;;2.92;1.58;;;22.00;71.30;;;;;;4836384;29;20221;-74
2023/05/05 10:43:30;;;;;;;3.08;1.48;;;22.00;71.20;;;;;;4870048;29;20209;-76
2023/05/05 10:45:59;;;;;;;3.88;1.48;;;22.00;71.30;;;;;;4864306;29;20220;-75
2023/05/05 10:48:35;;;;;;;2.72;1.73;;;22.00;70.90;;;;;;4871710;29;20205;-75
2023/05/05 10:51:27;;;;;;;2.58;1.10;;;22.00;70.80;;;;;;4871586;29;20729;-77
2023/05/05 10:54:13;;;;;;;2.50;1.50;;;22.10;71.00;;;;;;4876154;29;20217;-75
2023/05/05 10:56:43;;;;;;;2.58;1.50;;;22.10;70.50;;;;;;4866965;29;21101;-76
2023/05/05 10:59:40;;;;;;;3.13;1.80;;;22.10;70.60;;;;;;4858680;29;20258;-75
2023/05/05 11:02:27;;;;;;;2.60;1.25;;;22.20;70.90;;;;;;4865608;29;20209;-77
2023/05/05 11:05:16;;;;;;;4.22;1.10;;;22.20;70.50;;;;;;4874285;29;20197;-76
2023/05/05 11:07:46;;;;;;;5.28;2.17;;;22.20;70.70;;;;;;4865218;29;20239;-75
2023/05/05 11:10:15;;;;;;;4.40;2.08;;;22.30;71.00;;;;;;4868761;29;20226;-77
2023/05/05 11:13:18;;;;;;;1.45;1.00;;;22.40;71.20;;;;;;4863267;29;20233;-75
2023/05/05 11:15:48;;;;;;;1.70;1.30;;;22.40;71.10;;;;;;4866851;29;20304;-75
2023/05/05 11:18:30;;;;;;;2.78;1.17;;;22.50;71.00;;;;;;4873995;29;20200;-75
2023/05/05 11:21:17;;;;;;;1.60;1.05;;;22.50;70.70;;;;;;4869897;29;20256;-77
2023/05/05 11:23:50;;;;;;;3.45;1.48;;;22.60;70.70;;;;;;4875602;29;20212;-77
2023/05/05 11:26:35;;;;;;;4.38;1.45;;;22.60;69.70;;;;;;4871549;29;20189;-76
2023/05/05 11:29:05;;;;;;;3.22;1.35;;;22.60;69.70;;;;;;4870578;29;20197;-77
2023/05/05 11:31:33;;;;;;;2.50;1.25;;;22.70;69.70;;;;;;4873446;29;20205;-76
2023/05/05 11:34:24;;;;;;;2.90;1.38;;;22.70;69.50;;;;;;4875755;29;20696;-75
2023/05/05 11:36:58;;;;;;;3.03;1.38;;;22.80;69.00;;;;;;4870939;29;20263;-76
2023/05/05 11:39:37;;;;;;;4.10;1.30;;;22.80;69.10;;;;;;4874026;29;20229;-75
2023/05/05 11:42:29;;;;;;;3.65;1.50;;;22.80;68.50;;;;;;4872821;29;20553;-75
2023/05/05 11:44:58;;;;;;;2.70;1.33;;;22.90;68.90;;;;;;4861244;29;20198;-76
2023/05/05 11:47:35;;;;;;;3.35;1.40;;;22.90;68.60;;;;;;4874952;29;20201;-76
2023/05/05 11:50:21;;;;;;;2.45;1.20;;;22.90;68.50;;;;;;4864513;29;20207;-76
2023/05/05 11:52:51;;;;;;;2.60;1.40;;;22.90;68.10;;;;;;4871928;29;20205;-75
2023/05/05 11:55:21;;;;;;;2.20;0.98;;;22.90;67.50;;;;;;4868987;29;20229;-76
2023/05/05 11:57:50;;;;;;;2.35;1.15;;;23.00;67.90;;;;;;4875734;29;20673;-76
2023/05/05 12:00:19;;;;;;;4.63;1.33;;;23.00;68.00;;;;;;4871074;29;20205;-76
2023/05/05 12:02:56;;;;;;;2.25;1.17;;;23.10;67.50;;;;;;4871064;29;20606;-75
2023/05/05 12:05:25;;;;;;;1.88;1.15;;;23.20;67.40;;;;;;4874291;29;20584;-76
2023/05/05 12:07:58;;;;;;;2.17;0.90;;;23.30;67.20;;;;;;4874062;29;20229;-76
2023/05/05 12:10:27;;;;;;;1.63;0.90;;;23.30;67.40;;;;;;4874221;29;20197;-75
2023/05/05 12:12:55;;;;;;;1.45;0.77;;;23.40;66.80;;;;;;4874699;29;20209;-76
2023/05/05 12:15:32;;;;;;;3.70;1.40;;;23.50;66.50;;;;;;4873004;29;20469;-75
2023/05/05 12:18:00;;;;;;;2.28;1.40;;;23.50;66.50;;;;;;4870043;29;20257;-75
2023/05/05 12:20:32;;;;;;;1.77;1.17;;;23.50;65.80;;;;;;4868716;29;20301;-75
2023/05/05 12:23:02;;;;;;;0.95;0.70;;;23.60;65.90;;;;;;4872435;29;20197;-75
2023/05/05 12:25:38;;;;;;;2.17;1.00;;;23.60;65.90;;;;;;4870141;29;20204;-75
2023/05/05 12:28:08;;;;;;;1.65;1.00;;;23.70;65.50;;;;;;4869142;29;20231;-76
2023/05/05 12:30:36;;;;;;;1.45;0.95;;;23.70;65.60;;;;;;4871419;29;20261;-75
2023/05/05 12:33:06;;;;;;;3.13;1.13;;;23.70;65.20;;;;;;4872720;29;20202;-76
2023/05/05 12:35:34;;;;;;;2.00;0.95;;;23.70;64.70;;;;;;4865503;29;20221;-76
2023/05/05 12:38:04;;;;;;;1.65;0.93;;;23.70;64.40;;;;;;4867697;29;20262;-76
2023/05/05 12:40:47;;;;;;;3.25;1.02;;;23.70;64.30;;;;;;4869049;29;20232;-78
2023/05/05 12:43:39;;;;;;;1.63;0.85;;;23.70;64.20;;;;;;4874563;29;20268;-75
2023/05/05 12:46:08;;;;;;;2.20;1.00;;;23.80;64.30;;;;;;4863623;29;20205;-76
2023/05/05 12:48:38;;;;;;;2.78;1.00;;;23.90;64.10;;;;;;4870289;29;20197;-76
2023/05/05 12:51:18;;;;;;;2.15;1.30;;;23.90;63.80;;;;;;4875227;29;20232;-76
2023/05/05 12:53:53;;;;;;;1.35;0.95;;;24.10;63.80;;;;;;4874811;29;20625;-77
2023/05/05 12:56:37;;;;;;;1.45;0.82;;;24.10;62.70;;;;;;4868385;29;20268;-77
2023/05/05 12:59:07;;;;;;;2.25;1.08;;;24.10;63.30;;;;;;4873500;29;20200;-76
2023/05/05 13:01:37;;;;;;;4.13;1.20;;;24.10;63.10;;;;;;4871375;29;20201;-77
2023/05/05 13:04:08;;;;;;;2.92;0.82;;;24.00;62.20;;;;;;4872880;29;20208;-76
2023/05/05 13:06:37;;;;;;;16.58;1.40;;;24.00;61.20;;;;;;4871233;29;20684;-75